Terminal Aerodrome Forecast
Issued by NWS

Home | Current Version | Previous Version | Text Only | Print | Product List | Glossary On
Versions: 1 2 3 4 5 6 7 8 9 10 11 12 13 14 15 16 17 18 19 20 21 22 23
000
FTUS45 KGGW 101720 AAA
TAFGDV
TAF AMD
KGDV 101720Z 1017/1118 34015KT P6SM SCT015
     FM102000 34012KT P6SM BKN015
     FM110000 35007KT P6SM BKN015
     FM111200 09004KT P6SM VCSH OVC008
     FM111500 07004KT P6SM VCSH OVC003
      AMD LTD TO CLD VIS AND WIND=

USA.gov is the U.S. government's official web portal to all federal, state and local government web resources and services.